sensor_id;sensor_type;location;lat;lon;timestamp;P1;durP1;ratioP1;P2;durP2;ratioP2
7791;SDS011;3940;49.892;10.886;2022-07-23T00:00:23;9.73;;;7.27;;
7791;SDS011;3940;49.892;10.886;2022-07-23T00:03:08;6.97;;;6.27;;
7791;SDS011;3940;49.892;10.886;2022-07-23T00:05:52;6.90;;;6.20;;
7791;SDS011;3940;49.892;10.886;2022-07-23T00:08:37;7.40;;;6.70;;
7791;SDS011;3940;49.892;10.886;2022-07-23T00:11:21;7.97;;;7.30;;
7791;SDS011;3940;49.892;10.886;2022-07-23T00:14:06;9.23;;;7.23;;
7791;SDS011;3940;49.892;10.886;2022-07-23T00:16:50;8.60;;;7.90;;
7791;SDS011;3940;49.892;10.886;2022-07-23T00:19:34;7.90;;;7.20;;
7791;SDS011;3940;49.892;10.886;2022-07-23T00:22:18;7.47;;;6.73;;
7791;SDS011;3940;49.892;10.886;2022-07-23T00:25:03;10.30;;;7.97;;
7791;SDS011;3940;49.892;10.886;2022-07-23T00:27:48;7.70;;;6.97;;
7791;SDS011;3940;49.892;10.886;2022-07-23T00:30:32;10.33;;;7.33;;
7791;SDS011;3940;49.892;10.886;2022-07-23T00:33:17;7.80;;;7.00;;
7791;SDS011;3940;49.892;10.886;2022-07-23T00:36:01;8.77;;;7.40;;
7791;SDS011;3940;49.892;10.886;2022-07-23T00:38:46;9.07;;;7.70;;
7791;SDS011;3940;49.892;10.886;2022-07-23T00:41:30;8.27;;;7.10;;
7791;SDS011;3940;49.892;10.886;2022-07-23T00:44:15;8.83;;;8.00;;
7791;SDS011;3940;49.892;10.886;2022-07-23T00:47:08;17.00;;;6.77;;
7791;SDS011;3940;49.892;10.886;2022-07-23T00:49:53;7.60;;;6.63;;
7791;SDS011;3940;49.892;10.886;2022-07-23T00:52:38;7.17;;;6.30;;
7791;SDS011;3940;49.892;10.886;2022-07-23T00:55:23;9.47;;;7.20;;
7791;SDS011;3940;49.892;10.886;2022-07-23T00:58:08;11.50;;;7.27;;
7791;SDS011;3940;49.892;10.886;2022-07-23T01:00:53;7.83;;;7.10;;
7791;SDS011;3940;49.892;10.886;2022-07-23T01:03:38;12.40;;;7.60;;
7791;SDS011;3940;49.892;10.886;2022-07-23T01:06:22;10.10;;;8.77;;
7791;SDS011;3940;49.892;10.886;2022-07-23T01:09:07;10.67;;;8.30;;
7791;SDS011;3940;49.892;10.886;2022-07-23T01:11:51;9.30;;;7.70;;
7791;SDS011;3940;49.892;10.886;2022-07-23T01:14:39;7.63;;;6.90;;
7791;SDS011;3940;49.892;10.886;2022-07-23T01:17:24;8.80;;;8.00;;
7791;SDS011;3940;49.892;10.886;2022-07-23T01:20:09;8.57;;;7.70;;
7791;SDS011;3940;49.892;10.886;2022-07-23T01:22:53;8.83;;;8.03;;
7791;SDS011;3940;49.892;10.886;2022-07-23T01:25:40;7.13;;;6.53;;
7791;SDS011;3940;49.892;10.886;2022-07-23T01:28:32;9.00;;;5.97;;
7791;SDS011;3940;49.892;10.886;2022-07-23T01:31:16;7.03;;;6.43;;
7791;SDS011;3940;49.892;10.886;2022-07-23T01:34:01;8.97;;;8.20;;
7791;SDS011;3940;49.892;10.886;2022-07-23T01:36:46;8.00;;;7.20;;
7791;SDS011;3940;49.892;10.886;2022-07-23T01:39:30;8.30;;;7.50;;
7791;SDS011;3940;49.892;10.886;2022-07-23T01:42:15;8.30;;;7.50;;
7791;SDS011;3940;49.892;10.886;2022-07-23T01:44:59;9.93;;;8.27;;
7791;SDS011;3940;49.892;10.886;2022-07-23T01:47:44;14.80;;;9.00;;
7791;SDS011;3940;49.892;10.886;2022-07-23T01:50:29;9.73;;;7.47;;
7791;SDS011;3940;49.892;10.886;2022-07-23T01:53:14;12.23;;;7.33;;
7791;SDS011;3940;49.892;10.886;2022-07-23T01:55:59;11.20;;;8.73;;
7791;SDS011;3940;49.892;10.886;2022-07-23T01:58:44;8.63;;;6.50;;
7791;SDS011;3940;49.892;10.886;2022-07-23T02:01:28;8.17;;;7.00;;
7791;SDS011;3940;49.892;10.886;2022-07-23T02:04:12;7.87;;;7.17;;
7791;SDS011;3940;49.892;10.886;2022-07-23T02:06:57;7.50;;;6.87;;
7791;SDS011;3940;49.892;10.886;2022-07-23T02:09:42;8.43;;;7.33;;
7791;SDS011;3940;49.892;10.886;2022-07-23T02:12:27;13.20;;;7.40;;
7791;SDS011;3940;49.892;10.886;2022-07-23T02:15:11;9.87;;;8.87;;
7791;SDS011;3940;49.892;10.886;2022-07-23T02:17:56;10.20;;;7.70;;
7791;SDS011;3940;49.892;10.886;2022-07-23T02:20:41;13.93;;;8.20;;
7791;SDS011;3940;49.892;10.886;2022-07-23T02:23:26;6.67;;;6.07;;
7791;SDS011;3940;49.892;10.886;2022-07-23T02:26:10;10.20;;;8.40;;
7791;SDS011;3940;49.892;10.886;2022-07-23T02:28:54;8.70;;;7.83;;
7791;SDS011;3940;49.892;10.886;2022-07-23T02:31:39;7.90;;;6.93;;
7791;SDS011;3940;49.892;10.886;2022-07-23T02:34:23;8.77;;;7.90;;
7791;SDS011;3940;49.892;10.886;2022-07-23T02:37:08;7.57;;;6.87;;
7791;SDS011;3940;49.892;10.886;2022-07-23T02:39:53;8.83;;;7.23;;
7791;SDS011;3940;49.892;10.886;2022-07-23T02:42:38;7.87;;;7.27;;
7791;SDS011;3940;49.892;10.886;2022-07-23T02:45:22;10.17;;;7.50;;
7791;SDS011;3940;49.892;10.886;2022-07-23T02:48:07;8.33;;;7.53;;
7791;SDS011;3940;49.892;10.886;2022-07-23T02:50:51;7.43;;;6.73;;
7791;SDS011;3940;49.892;10.886;2022-07-23T02:53:36;7.40;;;6.80;;
7791;SDS011;3940;49.892;10.886;2022-07-23T02:56:20;6.43;;;5.83;;
7791;SDS011;3940;49.892;10.886;2022-07-23T02:59:04;8.67;;;7.87;;
7791;SDS011;3940;49.892;10.886;2022-07-23T03:01:49;7.57;;;6.63;;
7791;SDS011;3940;49.892;10.886;2022-07-23T03:04:33;11.87;;;8.80;;
7791;SDS011;3940;49.892;10.886;2022-07-23T03:07:17;8.67;;;7.80;;
7791;SDS011;3940;49.892;10.886;2022-07-23T03:10:02;9.80;;;8.90;;
7791;SDS011;3940;49.892;10.886;2022-07-23T03:12:47;9.30;;;8.40;;
7791;SDS011;3940;49.892;10.886;2022-07-23T03:15:31;11.83;;;9.03;;
7791;SDS011;3940;49.892;10.886;2022-07-23T03:18:16;8.60;;;7.80;;
7791;SDS011;3940;49.892;10.886;2022-07-23T03:21:00;16.00;;;7.97;;
7791;SDS011;3940;49.892;10.886;2022-07-23T03:23:44;10.53;;;8.53;;
7791;SDS011;3940;49.892;10.886;2022-07-23T03:26:29;10.10;;;9.10;;
7791;SDS011;3940;49.892;10.886;2022-07-23T03:29:13;10.30;;;9.20;;
7791;SDS011;3940;49.892;10.886;2022-07-23T03:31:57;11.60;;;8.80;;
7791;SDS011;3940;49.892;10.886;2022-07-23T03:34:41;10.27;;;8.40;;
7791;SDS011;3940;49.892;10.886;2022-07-23T03:37:26;10.50;;;9.50;;
7791;SDS011;3940;49.892;10.886;2022-07-23T03:40:11;10.93;;;9.83;;
7791;SDS011;3940;49.892;10.886;2022-07-23T03:42:55;15.13;;;9.73;;
7791;SDS011;3940;49.892;10.886;2022-07-23T03:45:40;9.73;;;8.73;;
7791;SDS011;3940;49.892;10.886;2022-07-23T03:48:25;9.70;;;8.70;;
7791;SDS011;3940;49.892;10.886;2022-07-23T03:51:09;10.33;;;9.20;;
7791;SDS011;3940;49.892;10.886;2022-07-23T03:53:55;9.90;;;9.00;;
7791;SDS011;3940;49.892;10.886;2022-07-23T03:56:39;10.20;;;8.77;;
7791;SDS011;3940;49.892;10.886;2022-07-23T03:59:24;17.83;;;8.83;;
7791;SDS011;3940;49.892;10.886;2022-07-23T04:02:08;8.37;;;7.47;;
7791;SDS011;3940;49.892;10.886;2022-07-23T04:04:53;11.60;;;9.70;;
7791;SDS011;3940;49.892;10.886;2022-07-23T04:07:38;9.40;;;8.07;;
7791;SDS011;3940;49.892;10.886;2022-07-23T04:10:24;13.07;;;8.80;;
7791;SDS011;3940;49.892;10.886;2022-07-23T04:13:08;10.50;;;8.63;;
7791;SDS011;3940;49.892;10.886;2022-07-23T04:15:53;9.53;;;8.27;;
7791;SDS011;3940;49.892;10.886;2022-07-23T04:18:37;9.57;;;8.67;;
7791;SDS011;3940;49.892;10.886;2022-07-23T04:21:21;10.03;;;8.97;;
7791;SDS011;3940;49.892;10.886;2022-07-23T04:24:06;9.47;;;8.20;;
7791;SDS011;3940;49.892;10.886;2022-07-23T04:26:51;11.80;;;8.77;;
7791;SDS011;3940;49.892;10.886;2022-07-23T04:29:37;20.00;;;10.10;;
7791;SDS011;3940;49.892;10.886;2022-07-23T04:32:21;10.00;;;9.10;;
7791;SDS011;3940;49.892;10.886;2022-07-23T04:35:05;9.80;;;8.90;;
7791;SDS011;3940;49.892;10.886;2022-07-23T04:37:52;9.20;;;8.30;;
7791;SDS011;3940;49.892;10.886;2022-07-23T04:40:36;10.17;;;8.27;;
7791;SDS011;3940;49.892;10.886;2022-07-23T04:43:20;14.97;;;9.17;;
7791;SDS011;3940;49.892;10.886;2022-07-23T04:46:04;14.50;;;8.73;;
7791;SDS011;3940;49.892;10.886;2022-07-23T04:48:49;9.70;;;7.03;;
7791;SDS011;3940;49.892;10.886;2022-07-23T04:51:33;13.73;;;8.90;;
7791;SDS011;3940;49.892;10.886;2022-07-23T04:54:18;10.10;;;9.10;;
7791;SDS011;3940;49.892;10.886;2022-07-23T04:57:02;14.10;;;8.33;;
7791;SDS011;3940;49.892;10.886;2022-07-23T04:59:46;10.50;;;8.80;;
7791;SDS011;3940;49.892;10.886;2022-07-23T05:02:31;11.47;;;9.23;;
7791;SDS011;3940;49.892;10.886;2022-07-23T05:05:15;8.83;;;8.00;;
7791;SDS011;3940;49.892;10.886;2022-07-23T05:07:59;10.90;;;8.63;;
7791;SDS011;3940;49.892;10.886;2022-07-23T05:10:43;11.50;;;8.67;;
7791;SDS011;3940;49.892;10.886;2022-07-23T05:13:28;10.27;;;9.20;;
7791;SDS011;3940;49.892;10.886;2022-07-23T05:16:12;12.67;;;8.40;;
7791;SDS011;3940;49.892;10.886;2022-07-23T05:18:56;15.73;;;11.03;;
7791;SDS011;3940;49.892;10.886;2022-07-23T05:21:41;12.57;;;8.83;;
7791;SDS011;3940;49.892;10.886;2022-07-23T05:24:25;11.03;;;8.77;;
7791;SDS011;3940;49.892;10.886;2022-07-23T05:27:09;13.03;;;10.00;;
7791;SDS011;3940;49.892;10.886;2022-07-23T05:29:53;13.07;;;9.40;;
7791;SDS011;3940;49.892;10.886;2022-07-23T05:32:38;16.10;;;8.37;;
7791;SDS011;3940;49.892;10.886;2022-07-23T05:35:23;11.83;;;10.63;;
7791;SDS011;3940;49.892;10.886;2022-07-23T05:38:07;17.53;;;10.23;;
7791;SDS011;3940;49.892;10.886;2022-07-23T05:40:51;10.93;;;9.67;;
7791;SDS011;3940;49.892;10.886;2022-07-23T05:43:36;12.47;;;9.20;;
7791;SDS011;3940;49.892;10.886;2022-07-23T05:46:20;9.33;;;8.43;;
7791;SDS011;3940;49.892;10.886;2022-07-23T05:49:06;8.93;;;8.10;;
7791;SDS011;3940;49.892;10.886;2022-07-23T05:51:50;9.97;;;9.07;;
7791;SDS011;3940;49.892;10.886;2022-07-23T05:54:34;9.80;;;8.97;;
7791;SDS011;3940;49.892;10.886;2022-07-23T05:57:19;11.27;;;9.13;;
7791;SDS011;3940;49.892;10.886;2022-07-23T06:00:04;10.73;;;9.40;;
7791;SDS011;3940;49.892;10.886;2022-07-23T06:02:50;9.03;;;7.97;;
7791;SDS011;3940;49.892;10.886;2022-07-23T06:05:34;15.70;;;9.20;;
7791;SDS011;3940;49.892;10.886;2022-07-23T06:08:19;11.27;;;9.10;;
7791;SDS011;3940;49.892;10.886;2022-07-23T06:11:03;11.20;;;10.10;;
7791;SDS011;3940;49.892;10.886;2022-07-23T06:13:48;9.47;;;7.70;;
7791;SDS011;3940;49.892;10.886;2022-07-23T06:16:33;12.67;;;9.60;;
7791;SDS011;3940;49.892;10.886;2022-07-23T06:19:17;15.43;;;9.87;;
7791;SDS011;3940;49.892;10.886;2022-07-23T06:22:02;9.87;;;8.60;;
7791;SDS011;3940;49.892;10.886;2022-07-23T06:24:46;9.10;;;8.30;;
7791;SDS011;3940;49.892;10.886;2022-07-23T06:27:31;10.50;;;9.03;;
7791;SDS011;3940;49.892;10.886;2022-07-23T06:30:15;8.80;;;7.97;;
7791;SDS011;3940;49.892;10.886;2022-07-23T06:33:00;10.50;;;9.60;;
7791;SDS011;3940;49.892;10.886;2022-07-23T06:35:45;19.00;;;9.63;;
7791;SDS011;3940;49.892;10.886;2022-07-23T06:38:29;10.60;;;9.50;;
7791;SDS011;3940;49.892;10.886;2022-07-23T06:41:13;14.83;;;8.70;;
7791;SDS011;3940;49.892;10.886;2022-07-23T06:43:57;7.93;;;7.13;;
7791;SDS011;3940;49.892;10.886;2022-07-23T06:46:42;7.57;;;6.97;;
7791;SDS011;3940;49.892;10.886;2022-07-23T06:49:26;9.07;;;8.17;;
7791;SDS011;3940;49.892;10.886;2022-07-23T06:52:11;11.30;;;8.03;;
7791;SDS011;3940;49.892;10.886;2022-07-23T06:54:55;9.43;;;8.60;;
7791;SDS011;3940;49.892;10.886;2022-07-23T06:57:39;9.20;;;8.30;;
7791;SDS011;3940;49.892;10.886;2022-07-23T07:00:24;8.83;;;7.93;;
7791;SDS011;3940;49.892;10.886;2022-07-23T07:03:10;8.07;;;7.33;;
7791;SDS011;3940;49.892;10.886;2022-07-23T07:05:56;8.40;;;7.60;;
7791;SDS011;3940;49.892;10.886;2022-07-23T07:08:41;9.83;;;8.40;;
7791;SDS011;3940;49.892;10.886;2022-07-23T07:11:26;7.87;;;6.93;;
7791;SDS011;3940;49.892;10.886;2022-07-23T07:14:11;8.20;;;7.43;;
7791;SDS011;3940;49.892;10.886;2022-07-23T07:16:55;11.30;;;8.10;;
7791;SDS011;3940;49.892;10.886;2022-07-23T07:19:40;12.00;;;8.20;;
7791;SDS011;3940;49.892;10.886;2022-07-23T07:22:24;13.47;;;8.23;;
7791;SDS011;3940;49.892;10.886;2022-07-23T07:25:08;8.73;;;7.40;;
7791;SDS011;3940;49.892;10.886;2022-07-23T07:27:52;8.57;;;6.87;;
7791;SDS011;3940;49.892;10.886;2022-07-23T07:30:37;6.83;;;6.23;;
7791;SDS011;3940;49.892;10.886;2022-07-23T07:33:22;8.20;;;6.37;;
7791;SDS011;3940;49.892;10.886;2022-07-23T07:36:06;6.07;;;5.57;;
7791;SDS011;3940;49.892;10.886;2022-07-23T07:38:51;9.30;;;5.77;;
7791;SDS011;3940;49.892;10.886;2022-07-23T07:41:35;6.30;;;5.80;;
7791;SDS011;3940;49.892;10.886;2022-07-23T07:44:20;5.87;;;5.37;;
7791;SDS011;3940;49.892;10.886;2022-07-23T07:47:04;6.90;;;5.53;;
7791;SDS011;3940;49.892;10.886;2022-07-23T07:49:49;6.93;;;6.23;;
7791;SDS011;3940;49.892;10.886;2022-07-23T07:52:34;6.50;;;5.67;;
7791;SDS011;3940;49.892;10.886;2022-07-23T07:55:20;5.70;;;5.30;;
7791;SDS011;3940;49.892;10.886;2022-07-23T07:58:04;6.03;;;5.40;;
7791;SDS011;3940;49.892;10.886;2022-07-23T08:00:48;6.50;;;5.90;;
7791;SDS011;3940;49.892;10.886;2022-07-23T08:03:33;6.87;;;5.57;;
7791;SDS011;3940;49.892;10.886;2022-07-23T08:06:18;6.27;;;5.63;;
7791;SDS011;3940;49.892;10.886;2022-07-23T08:09:02;12.60;;;5.87;;
7791;SDS011;3940;49.892;10.886;2022-07-23T08:11:47;8.23;;;5.53;;
7791;SDS011;3940;49.892;10.886;2022-07-23T08:14:32;6.03;;;5.50;;
7791;SDS011;3940;49.892;10.886;2022-07-23T08:17:16;9.67;;;7.00;;
7791;SDS011;3940;49.892;10.886;2022-07-23T08:20:00;6.90;;;6.07;;
7791;SDS011;3940;49.892;10.886;2022-07-23T08:22:53;5.93;;;5.43;;
7791;SDS011;3940;49.892;10.886;2022-07-23T08:25:41;7.23;;;6.23;;
7791;SDS011;3940;49.892;10.886;2022-07-23T08:28:26;7.83;;;6.73;;
7791;SDS011;3940;49.892;10.886;2022-07-23T08:31:11;5.27;;;4.77;;
7791;SDS011;3940;49.892;10.886;2022-07-23T08:33:56;7.20;;;6.47;;
7791;SDS011;3940;49.892;10.886;2022-07-23T08:36:41;6.60;;;5.70;;
7791;SDS011;3940;49.892;10.886;2022-07-23T08:39:25;9.90;;;6.13;;
7791;SDS011;3940;49.892;10.886;2022-07-23T08:42:12;8.90;;;8.00;;
7791;SDS011;3940;49.892;10.886;2022-07-23T08:44:58;7.70;;;6.97;;
7791;SDS011;3940;49.892;10.886;2022-07-23T08:47:42;8.60;;;6.60;;
7791;SDS011;3940;49.892;10.886;2022-07-23T08:50:27;11.13;;;6.23;;
7791;SDS011;3940;49.892;10.886;2022-07-23T08:53:11;6.30;;;5.90;;
7791;SDS011;3940;49.892;10.886;2022-07-23T08:55:58;7.13;;;6.43;;
7791;SDS011;3940;49.892;10.886;2022-07-23T08:58:45;6.77;;;6.17;;
7791;SDS011;3940;49.892;10.886;2022-07-23T09:01:30;7.70;;;6.50;;
7791;SDS011;3940;49.892;10.886;2022-07-23T09:04:15;7.07;;;6.47;;
7791;SDS011;3940;49.892;10.886;2022-07-23T09:06:59;10.43;;;7.13;;
7791;SDS011;3940;49.892;10.886;2022-07-23T09:09:45;10.40;;;7.40;;
7791;SDS011;3940;49.892;10.886;2022-07-23T09:12:29;7.40;;;6.70;;
7791;SDS011;3940;49.892;10.886;2022-07-23T09:15:14;9.73;;;7.10;;
7791;SDS011;3940;49.892;10.886;2022-07-23T09:17:58;7.63;;;6.70;;
7791;SDS011;3940;49.892;10.886;2022-07-23T09:20:44;7.60;;;6.90;;
7791;SDS011;3940;49.892;10.886;2022-07-23T09:26:31;8.35;;;7.55;;
7791;SDS011;3940;49.892;10.886;2022-07-23T09:29:19;7.30;;;6.70;;
7791;SDS011;3940;49.892;10.886;2022-07-23T09:32:06;8.23;;;7.40;;
7791;SDS011;3940;49.892;10.886;2022-07-23T09:34:57;8.30;;;7.50;;
7791;SDS011;3940;49.892;10.886;2022-07-23T09:37:41;9.10;;;7.43;;
7791;SDS011;3940;49.892;10.886;2022-07-23T09:40:45;9.30;;;8.50;;
7791;SDS011;3940;49.892;10.886;2022-07-23T09:43:30;8.97;;;8.07;;
7791;SDS011;3940;49.892;10.886;2022-07-23T09:46:30;9.23;;;8.33;;
7791;SDS011;3940;49.892;10.886;2022-07-23T09:49:16;9.63;;;8.00;;
7791;SDS011;3940;49.892;10.886;2022-07-23T09:52:02;9.07;;;8.23;;
7791;SDS011;3940;49.892;10.886;2022-07-23T09:54:47;7.23;;;6.60;;
7791;SDS011;3940;49.892;10.886;2022-07-23T09:57:43;10.93;;;9.10;;
7791;SDS011;3940;49.892;10.886;2022-07-23T10:00:30;10.80;;;8.70;;
7791;SDS011;3940;49.892;10.886;2022-07-23T10:03:16;10.73;;;9.33;;
7791;SDS011;3940;49.892;10.886;2022-07-23T10:06:03;9.13;;;8.23;;
7791;SDS011;3940;49.892;10.886;2022-07-23T10:08:47;9.13;;;8.23;;
7791;SDS011;3940;49.892;10.886;2022-07-23T10:11:34;9.20;;;8.10;;
7791;SDS011;3940;49.892;10.886;2022-07-23T10:14:20;8.53;;;7.73;;
7791;SDS011;3940;49.892;10.886;2022-07-23T10:17:05;7.47;;;6.97;;
7791;SDS011;3940;49.892;10.886;2022-07-23T10:19:50;8.10;;;7.27;;
7791;SDS011;3940;49.892;10.886;2022-07-23T10:22:35;6.90;;;6.40;;
7791;SDS011;3940;49.892;10.886;2022-07-23T10:25:32;10.43;;;9.10;;
7791;SDS011;3940;49.892;10.886;2022-07-23T10:28:39;9.17;;;8.27;;
7791;SDS011;3940;49.892;10.886;2022-07-23T10:31:35;8.73;;;7.80;;
7791;SDS011;3940;49.892;10.886;2022-07-23T10:34:40;8.77;;;7.67;;
7791;SDS011;3940;49.892;10.886;2022-07-23T10:37:36;8.13;;;7.33;;
7791;SDS011;3940;49.892;10.886;2022-07-23T10:40:24;7.60;;;6.90;;
7791;SDS011;3940;49.892;10.886;2022-07-23T10:43:12;9.30;;;8.30;;
7791;SDS011;3940;49.892;10.886;2022-07-23T10:52:17;8.33;;;7.53;;
7791;SDS011;3940;49.892;10.886;2022-07-23T10:55:39;9.03;;;8.30;;
7791;SDS011;3940;49.892;10.886;2022-07-23T10:58:08;8.40;;;7.60;;
7791;SDS011;3940;49.892;10.886;2022-07-23T11:00:53;9.93;;;9.13;;
7791;SDS011;3940;49.892;10.886;2022-07-23T11:03:38;9.33;;;8.50;;
7791;SDS011;3940;49.892;10.886;2022-07-23T11:06:43;8.97;;;8.23;;
7791;SDS011;3940;49.892;10.886;2022-07-23T11:09:49;8.10;;;7.40;;
7791;SDS011;3940;49.892;10.886;2022-07-23T11:12:33;12.63;;;9.20;;
7791;SDS011;3940;49.892;10.886;2022-07-23T11:15:19;10.30;;;9.30;;
7791;SDS011;3940;49.892;10.886;2022-07-23T11:18:03;8.80;;;8.00;;
7791;SDS011;3940;49.892;10.886;2022-07-23T11:20:49;12.13;;;9.33;;
7791;SDS011;3940;49.892;10.886;2022-07-23T11:26:45;8.23;;;6.80;;
7791;SDS011;3940;49.892;10.886;2022-07-23T11:29:40;8.70;;;7.93;;
7791;SDS011;3940;49.892;10.886;2022-07-23T11:32:28;8.47;;;7.77;;
7791;SDS011;3940;49.892;10.886;2022-07-23T11:35:22;8.40;;;7.20;;
7791;SDS011;3940;49.892;10.886;2022-07-23T11:38:13;10.33;;;7.87;;
7791;SDS011;3940;49.892;10.886;2022-07-23T11:41:00;8.33;;;7.63;;
7791;SDS011;3940;49.892;10.886;2022-07-23T11:43:46;8.30;;;7.60;;
7791;SDS011;3940;49.892;10.886;2022-07-23T11:46:31;6.60;;;6.10;;
7791;SDS011;3940;49.892;10.886;2022-07-23T11:49:15;10.40;;;7.80;;
7791;SDS011;3940;49.892;10.886;2022-07-23T11:52:21;8.57;;;7.77;;
7791;SDS011;3940;49.892;10.886;2022-07-23T11:55:07;10.63;;;8.43;;
7791;SDS011;3940;49.892;10.886;2022-07-23T11:57:53;7.93;;;7.13;;
7791;SDS011;3940;49.892;10.886;2022-07-23T12:00:40;7.77;;;7.17;;
7791;SDS011;3940;49.892;10.886;2022-07-23T12:03:26;7.93;;;7.13;;
7791;SDS011;3940;49.892;10.886;2022-07-23T12:06:10;8.77;;;7.97;;
7791;SDS011;3940;49.892;10.886;2022-07-23T12:08:55;7.70;;;7.10;;
7791;SDS011;3940;49.892;10.886;2022-07-23T12:11:39;11.83;;;7.10;;
7791;SDS011;3940;49.892;10.886;2022-07-23T12:14:47;9.60;;;8.60;;
7791;SDS011;3940;49.892;10.886;2022-07-23T12:17:37;8.40;;;7.50;;
7791;SDS011;3940;49.892;10.886;2022-07-23T12:20:32;8.30;;;7.60;;
7791;SDS011;3940;49.892;10.886;2022-07-23T12:24:07;8.27;;;7.47;;
7791;SDS011;3940;49.892;10.886;2022-07-23T12:27:13;8.77;;;7.65;;
7791;SDS011;3940;49.892;10.886;2022-07-23T12:30:14;7.78;;;7.07;;
7791;SDS011;3940;49.892;10.886;2022-07-23T12:33:07;8.50;;;7.75;;
7791;SDS011;3940;49.892;10.886;2022-07-23T12:35:54;8.63;;;7.82;;
7791;SDS011;3940;49.892;10.886;2022-07-23T12:38:41;9.45;;;8.57;;
7791;SDS011;3940;49.892;10.886;2022-07-23T12:41:48;7.88;;;7.28;;
7791;SDS011;3940;49.892;10.886;2022-07-23T12:44:34;7.28;;;6.68;;
7791;SDS011;3940;49.892;10.886;2022-07-23T12:47:19;9.00;;;8.18;;
7791;SDS011;3940;49.892;10.886;2022-07-23T12:50:06;8.75;;;6.47;;
7791;SDS011;3940;49.892;10.886;2022-07-23T12:53:16;10.93;;;7.68;;
7791;SDS011;3940;49.892;10.886;2022-07-23T12:56:04;8.95;;;8.15;;
7791;SDS011;3940;49.892;10.886;2022-07-23T12:58:59;8.75;;;7.03;;
7791;SDS011;3940;49.892;10.886;2022-07-23T13:01:54;8.43;;;7.25;;
7791;SDS011;3940;49.892;10.886;2022-07-23T13:04:42;7.32;;;6.72;;
7791;SDS011;3940;49.892;10.886;2022-07-23T13:07:27;7.88;;;7.15;;
7791;SDS011;3940;49.892;10.886;2022-07-23T13:10:12;8.00;;;7.35;;
7791;SDS011;3940;49.892;10.886;2022-07-23T13:12:56;7.03;;;6.43;;
7791;SDS011;3940;49.892;10.886;2022-07-23T13:15:47;7.32;;;6.63;;
7791;SDS011;3940;49.892;10.886;2022-07-23T13:18:35;7.90;;;7.30;;
7791;SDS011;3940;49.892;10.886;2022-07-23T13:21:20;6.55;;;6.00;;
7791;SDS011;3940;49.892;10.886;2022-07-23T13:24:04;7.22;;;6.53;;
7791;SDS011;3940;49.892;10.886;2022-07-23T13:26:49;6.95;;;6.43;;
7791;SDS011;3940;49.892;10.886;2022-07-23T13:29:39;7.07;;;6.40;;
7791;SDS011;3940;49.892;10.886;2022-07-23T13:32:25;7.68;;;6.97;;
7791;SDS011;3940;49.892;10.886;2022-07-23T13:35:10;8.10;;;6.43;;
7791;SDS011;3940;49.892;10.886;2022-07-23T13:37:56;6.70;;;6.10;;
7791;SDS011;3940;49.892;10.886;2022-07-23T13:41:01;6.97;;;6.40;;
7791;SDS011;3940;49.892;10.886;2022-07-23T13:43:46;8.47;;;7.50;;
7791;SDS011;3940;49.892;10.886;2022-07-23T13:46:31;6.53;;;5.93;;
7791;SDS011;3940;49.892;10.886;2022-07-23T13:49:16;7.15;;;6.50;;
7791;SDS011;3940;49.892;10.886;2022-07-23T13:52:01;9.38;;;7.03;;
7791;SDS011;3940;49.892;10.886;2022-07-23T13:54:49;7.63;;;7.03;;
7791;SDS011;3940;49.892;10.886;2022-07-23T13:57:35;7.13;;;6.63;;
7791;SDS011;3940;49.892;10.886;2022-07-23T14:00:22;6.30;;;5.80;;
7791;SDS011;3940;49.892;10.886;2022-07-23T14:03:09;6.95;;;6.35;;
7791;SDS011;3940;49.892;10.886;2022-07-23T14:05:57;6.00;;;5.50;;
7791;SDS011;3940;49.892;10.886;2022-07-23T14:08:44;7.15;;;6.35;;
7791;SDS011;3940;49.892;10.886;2022-07-23T14:11:28;7.75;;;6.20;;
7791;SDS011;3940;49.892;10.886;2022-07-23T14:14:34;6.45;;;5.70;;
7791;SDS011;3940;49.892;10.886;2022-07-23T14:17:21;11.30;;;6.60;;
7791;SDS011;3940;49.892;10.886;2022-07-23T14:20:05;7.03;;;6.37;;
7791;SDS011;3940;49.892;10.886;2022-07-23T14:22:53;6.60;;;6.10;;
7791;SDS011;3940;49.892;10.886;2022-07-23T14:25:40;7.33;;;6.30;;
7791;SDS011;3940;49.892;10.886;2022-07-23T14:28:26;6.43;;;5.83;;
7791;SDS011;3940;49.892;10.886;2022-07-23T14:31:31;7.57;;;6.80;;
7791;SDS011;3940;49.892;10.886;2022-07-23T14:34:17;6.57;;;6.07;;
7791;SDS011;3940;49.892;10.886;2022-07-23T14:37:01;7.67;;;7.07;;
7791;SDS011;3940;49.892;10.886;2022-07-23T14:39:49;7.90;;;7.20;;
7791;SDS011;3940;49.892;10.886;2022-07-23T14:42:58;6.60;;;6.00;;
7791;SDS011;3940;49.892;10.886;2022-07-23T14:45:59;6.87;;;6.27;;
7791;SDS011;3940;49.892;10.886;2022-07-23T14:48:46;6.97;;;6.27;;
7791;SDS011;3940;49.892;10.886;2022-07-23T14:51:35;6.47;;;5.97;;
7791;SDS011;3940;49.892;10.886;2022-07-23T14:54:24;7.50;;;6.20;;
7791;SDS011;3940;49.892;10.886;2022-07-23T14:57:10;7.38;;;6.63;;
7791;SDS011;3940;49.892;10.886;2022-07-23T14:59:54;6.95;;;6.35;;
7791;SDS011;3940;49.892;10.886;2022-07-23T15:02:40;6.93;;;6.38;;
7791;SDS011;3940;49.892;10.886;2022-07-23T15:05:26;6.13;;;5.73;;
7791;SDS011;3940;49.892;10.886;2022-07-23T15:08:12;7.63;;;6.87;;
7791;SDS011;3940;49.892;10.886;2022-07-23T15:10:57;6.80;;;6.20;;
7791;SDS011;3940;49.892;10.886;2022-07-23T15:13:47;6.67;;;6.17;;
7791;SDS011;3940;49.892;10.886;2022-07-23T15:16:37;11.30;;;6.30;;
7791;SDS011;3940;49.892;10.886;2022-07-23T15:19:22;7.40;;;6.80;;
7791;SDS011;3940;49.892;10.886;2022-07-23T15:22:06;9.20;;;5.80;;
7791;SDS011;3940;49.892;10.886;2022-07-23T15:24:51;7.43;;;6.60;;
7791;SDS011;3940;49.892;10.886;2022-07-23T15:27:35;7.33;;;5.77;;
7791;SDS011;3940;49.892;10.886;2022-07-23T15:30:20;10.00;;;6.73;;
7791;SDS011;3940;49.892;10.886;2022-07-23T15:33:05;7.10;;;6.50;;
7791;SDS011;3940;49.892;10.886;2022-07-23T15:35:52;6.55;;;5.95;;
7791;SDS011;3940;49.892;10.886;2022-07-23T15:38:42;6.93;;;6.43;;
7791;SDS011;3940;49.892;10.886;2022-07-23T15:41:30;6.45;;;5.95;;
7791;SDS011;3940;49.892;10.886;2022-07-23T15:44:24;6.00;;;5.00;;
7791;SDS011;3940;49.892;10.886;2022-07-23T15:47:11;7.27;;;6.77;;
7791;SDS011;3940;49.892;10.886;2022-07-23T15:49:58;6.67;;;6.07;;
7791;SDS011;3940;49.892;10.886;2022-07-23T15:52:43;9.73;;;6.93;;
7791;SDS011;3940;49.892;10.886;2022-07-23T15:55:27;7.57;;;6.70;;
7791;SDS011;3940;49.892;10.886;2022-07-23T15:58:12;7.27;;;6.67;;
7791;SDS011;3940;49.892;10.886;2022-07-23T16:00:57;9.57;;;7.53;;
7791;SDS011;3940;49.892;10.886;2022-07-23T16:03:42;5.78;;;5.25;;
7791;SDS011;3940;49.892;10.886;2022-07-23T16:06:26;6.22;;;5.63;;
7791;SDS011;3940;49.892;10.886;2022-07-23T16:09:11;8.65;;;5.38;;
7791;SDS011;3940;49.892;10.886;2022-07-23T16:11:55;5.82;;;5.32;;
7791;SDS011;3940;49.892;10.886;2022-07-23T16:14:39;6.10;;;5.60;;
7791;SDS011;3940;49.892;10.886;2022-07-23T16:17:28;8.00;;;6.20;;
7791;SDS011;3940;49.892;10.886;2022-07-23T16:20:13;10.48;;;5.78;;
7791;SDS011;3940;49.892;10.886;2022-07-23T16:22:58;6.25;;;5.78;;
7791;SDS011;3940;49.892;10.886;2022-07-23T16:25:42;6.95;;;6.40;;
7791;SDS011;3940;49.892;10.886;2022-07-23T16:28:27;5.72;;;5.28;;
7791;SDS011;3940;49.892;10.886;2022-07-23T16:31:12;6.45;;;5.82;;
7791;SDS011;3940;49.892;10.886;2022-07-23T16:33:57;6.20;;;5.60;;
7791;SDS011;3940;49.892;10.886;2022-07-23T16:36:41;6.57;;;5.60;;
7791;SDS011;3940;49.892;10.886;2022-07-23T16:39:26;7.37;;;6.47;;
7791;SDS011;3940;49.892;10.886;2022-07-23T16:42:11;7.10;;;6.53;;
7791;SDS011;3940;49.892;10.886;2022-07-23T16:44:56;6.60;;;5.90;;
7791;SDS011;3940;49.892;10.886;2022-07-23T16:47:41;7.23;;;5.73;;
7791;SDS011;3940;49.892;10.886;2022-07-23T16:50:26;6.37;;;5.90;;
7791;SDS011;3940;49.892;10.886;2022-07-23T16:53:10;6.83;;;6.00;;
7791;SDS011;3940;49.892;10.886;2022-07-23T16:55:54;7.23;;;6.17;;
7791;SDS011;3940;49.892;10.886;2022-07-23T16:58:39;6.43;;;5.60;;
7791;SDS011;3940;49.892;10.886;2022-07-23T17:01:23;6.90;;;6.33;;
7791;SDS011;3940;49.892;10.886;2022-07-23T17:04:07;6.40;;;5.80;;
7791;SDS011;3940;49.892;10.886;2022-07-23T17:06:52;6.67;;;6.07;;